createdAt,value
2018-05-10T00:01:08.839Z,14.30
2018-05-10T00:03:37.111Z,14.30
2018-05-10T00:06:05.370Z,14.20
2018-05-10T00:08:34.418Z,14.10
2018-05-10T00:11:02.659Z,14.10
2018-05-10T00:13:30.954Z,14.10
2018-05-10T00:15:59.192Z,14.00
2018-05-10T00:18:28.255Z,13.90
2018-05-10T00:20:56.487Z,13.90
2018-05-10T00:23:24.761Z,14.00
2018-05-10T00:25:53.003Z,13.90
2018-05-10T00:28:21.280Z,14.00
2018-05-10T00:30:49.522Z,14.00
2018-05-10T00:33:17.828Z,14.00
2018-05-10T00:35:46.072Z,14.00
2018-05-10T00:38:14.361Z,14.00
2018-05-10T00:40:42.655Z,13.90
2018-05-10T00:43:10.952Z,13.90
2018-05-10T00:45:39.225Z,13.90
2018-05-10T00:48:07.504Z,13.80
2018-05-10T00:50:35.754Z,13.80
2018-05-10T00:53:04.042Z,13.70
2018-05-10T00:55:32.320Z,13.50
2018-05-10T00:58:00.568Z,13.60
2018-05-10T01:00:28.867Z,13.60
2018-05-10T01:02:57.116Z,13.60
2018-05-10T01:05:25.411Z,13.60
2018-05-10T01:07:53.674Z,13.60
2018-05-10T01:10:21.960Z,13.50
2018-05-10T01:12:50.284Z,13.50
2018-05-10T01:15:18.554Z,13.40
2018-05-10T01:17:47.583Z,13.30
2018-05-10T01:20:15.937Z,13.30
2018-05-10T01:22:44.266Z,13.20
2018-05-10T01:25:12.587Z,13.20
2018-05-10T01:27:40.840Z,13.10
2018-05-10T01:30:09.139Z,13.10
2018-05-10T01:32:37.404Z,13.10
2018-05-10T01:35:17.499Z,13.10
2018-05-10T01:37:45.751Z,13.10
2018-05-10T01:40:14.775Z,13.10
2018-05-10T01:42:43.079Z,13.10
2018-05-10T01:45:11.319Z,13.10
2018-05-10T01:47:39.585Z,12.90
2018-05-10T01:50:08.629Z,12.90
2018-05-10T01:52:36.918Z,12.90
2018-05-10T01:55:05.172Z,12.90
2018-05-10T01:57:33.420Z,12.90
2018-05-10T02:00:01.682Z,12.90
2018-05-10T02:02:30.733Z,13.00
2018-05-10T02:04:59.057Z,12.90
2018-05-10T02:07:28.099Z,12.90
2018-05-10T02:09:56.357Z,12.90
2018-05-10T02:12:24.662Z,12.90
2018-05-10T02:14:52.920Z,12.80
2018-05-10T02:17:21.161Z,12.80
2018-05-10T02:19:50.244Z,12.80
2018-05-10T02:22:18.494Z,12.70
2018-05-10T02:24:46.783Z,12.80
2018-05-10T02:27:15.075Z,12.70
2018-05-10T02:29:43.368Z,12.60
2018-05-10T02:32:11.627Z,12.50
2018-05-10T02:34:39.865Z,12.50
2018-05-10T02:37:08.182Z,12.40
2018-05-10T02:39:36.437Z,12.40
2018-05-10T02:42:04.736Z,12.30
2018-05-10T02:44:33.021Z,12.30
2018-05-10T02:47:01.335Z,12.20
2018-05-10T02:49:29.574Z,12.30
2018-05-10T02:51:58.667Z,12.20
2018-05-10T02:54:26.942Z,12.20
2018-05-10T02:56:55.255Z,12.20
2018-05-10T02:59:23.542Z,12.10
2018-05-10T03:01:51.825Z,12.10
2018-05-10T03:04:20.076Z,12.00
2018-05-10T03:06:48.312Z,12.10
2018-05-10T03:09:16.586Z,12.00
2018-05-10T03:11:44.868Z,12.00
2018-05-10T03:14:13.173Z,11.90
2018-05-10T03:16:41.451Z,11.90
2018-05-10T03:19:10.515Z,11.80
2018-05-10T03:21:38.801Z,11.80
2018-05-10T03:24:07.102Z,11.80
2018-05-10T03:26:36.123Z,11.80
2018-05-10T03:29:04.425Z,11.80
2018-05-10T03:31:32.693Z,11.80
2018-05-10T03:34:00.980Z,11.80
2018-05-10T03:36:29.260Z,11.70
2018-05-10T03:38:57.532Z,11.70
2018-05-10T03:41:25.822Z,11.60
2018-05-10T03:43:54.070Z,11.60
2018-05-10T03:46:22.401Z,11.50
2018-05-10T03:48:50.669Z,11.50
2018-05-10T03:51:18.921Z,11.50
2018-05-10T03:53:47.181Z,11.50
2018-05-10T03:56:15.439Z,11.50
2018-05-10T03:58:44.531Z,11.50
2018-05-10T04:01:13.581Z,11.50
2018-05-10T04:03:53.776Z,11.50
2018-05-10T04:06:34.693Z,11.50
2018-05-10T04:09:14.940Z,11.40
2018-05-10T04:11:43.233Z,11.50
2018-05-10T04:14:11.510Z,11.50
2018-05-10T04:16:39.769Z,11.50
2018-05-10T04:19:08.020Z,11.50
2018-05-10T04:21:37.098Z,11.60
2018-05-10T04:24:05.383Z,11.50
2018-05-10T04:26:34.458Z,11.60
2018-05-10T04:29:02.714Z,11.60
2018-05-10T04:31:31.032Z,11.70
2018-05-10T04:33:59.271Z,11.70
2018-05-10T04:36:27.553Z,11.80
2018-05-10T04:38:55.839Z,11.80
2018-05-10T04:41:24.136Z,11.80
2018-05-10T04:43:52.403Z,11.90
2018-05-10T04:46:20.695Z,11.90
2018-05-10T04:48:49.754Z,12.00
2018-05-10T04:51:17.991Z,12.00
2018-05-10T04:53:46.252Z,12.10
2018-05-10T04:56:15.296Z,12.20
2018-05-10T04:58:44.399Z,12.20
2018-05-10T05:01:12.674Z,12.30
2018-05-10T05:03:40.969Z,12.40
2018-05-10T05:06:09.454Z,12.60
2018-05-10T05:08:37.728Z,12.70
2018-05-10T05:11:06.002Z,12.80
2018-05-10T05:13:34.260Z,12.90
2018-05-10T05:16:02.525Z,13.00
2018-05-10T05:18:30.831Z,13.10
2018-05-10T05:20:59.689Z,13.20
2018-05-10T05:23:27.936Z,13.30
2018-05-10T05:25:56.999Z,13.50
2018-05-10T05:28:25.255Z,13.50
2018-05-10T05:30:53.551Z,13.60
2018-05-10T05:33:21.793Z,13.70
2018-05-10T05:35:50.107Z,13.80
2018-05-10T05:38:18.404Z,13.90
2018-05-10T05:40:46.653Z,13.90
2018-05-10T05:43:14.977Z,14.00
2018-05-10T05:45:44.041Z,14.20
2018-05-10T05:48:12.347Z,14.20
2018-05-10T05:50:40.605Z,14.30
2018-05-10T05:53:08.926Z,14.40
2018-05-10T05:55:37.236Z,14.50
2018-05-10T05:58:05.524Z,14.50
2018-05-10T06:00:33.765Z,14.60
2018-05-10T06:03:02.039Z,14.60
2018-05-10T06:05:30.321Z,14.60
2018-05-10T06:07:58.597Z,14.70
2018-05-10T06:10:26.890Z,14.90
2018-05-10T06:12:55.161Z,15.00
2018-05-10T06:15:23.410Z,15.10
2018-05-10T06:17:51.715Z,15.20
2018-05-10T06:20:19.959Z,15.30
2018-05-10T06:22:48.211Z,15.40
2018-05-10T06:25:16.548Z,15.40
2018-05-10T06:27:44.727Z,15.50
2018-05-10T06:30:12.976Z,15.50
2018-05-10T06:32:41.288Z,15.50
2018-05-10T06:35:09.575Z,15.60
2018-05-10T06:37:37.889Z,15.60
2018-05-10T06:40:06.941Z,15.80
2018-05-10T06:42:35.179Z,15.80
2018-05-10T06:45:03.437Z,15.80
2018-05-10T06:47:31.704Z,16.00
2018-05-10T06:50:01.620Z,16.20
2018-05-10T06:52:30.871Z,16.20
2018-05-10T06:54:59.117Z,16.30
2018-05-10T06:57:27.424Z,16.40
2018-05-10T06:59:55.681Z,16.50
2018-05-10T07:02:23.995Z,16.70
2018-05-10T07:04:52.272Z,16.80
2018-05-10T07:07:20.549Z,16.90
2018-05-10T07:09:49.024Z,16.90
2018-05-10T07:12:17.129Z,17.00
2018-05-10T07:14:45.429Z,17.10
2018-05-10T07:17:14.739Z,17.40
2018-05-10T07:19:43.049Z,17.40
2018-05-10T07:22:11.282Z,17.50
2018-05-10T07:24:40.351Z,17.60
2018-05-10T07:27:09.207Z,17.60
2018-05-10T07:29:37.474Z,17.70
2018-05-10T07:32:05.746Z,17.80
2018-05-10T07:34:34.066Z,17.90
2018-05-10T07:37:02.366Z,18.00
2018-05-10T07:39:31.418Z,18.10
2018-05-10T07:41:59.761Z,18.10
2018-05-10T07:44:29.023Z,18.10
2018-05-10T07:46:57.282Z,18.10
2018-05-10T07:49:25.581Z,18.20
2018-05-10T07:51:53.879Z,18.30
2018-05-10T07:54:22.894Z,18.50
2018-05-10T07:56:51.165Z,18.50
2018-05-10T07:59:20.214Z,18.80
2018-05-10T08:01:48.474Z,18.80
2018-05-10T08:04:16.720Z,18.90
2018-05-10T08:06:45.051Z,19.00
2018-05-10T08:09:13.308Z,19.10
2018-05-10T08:11:41.619Z,19.20
2018-05-10T08:14:09.903Z,19.30
2018-05-10T08:16:38.197Z,19.40
2018-05-10T08:19:07.234Z,19.50
2018-05-10T08:21:35.488Z,19.50
2018-05-10T08:24:03.790Z,19.50
2018-05-10T08:26:32.031Z,19.60
2018-05-10T08:29:00.354Z,19.60
2018-05-10T08:31:28.638Z,19.60
2018-05-10T08:33:56.880Z,19.70
2018-05-10T08:36:26.041Z,19.90
2018-05-10T08:38:54.321Z,20.10
2018-05-10T08:41:23.333Z,20.10
2018-05-10T08:43:51.582Z,20.10
2018-05-10T08:46:19.834Z,20.20
2018-05-10T08:48:48.154Z,20.30
2018-05-10T08:51:17.176Z,20.60
2018-05-10T08:53:45.444Z,20.60
2018-05-10T08:56:13.705Z,20.70
2018-05-10T08:58:42.708Z,20.80
2018-05-10T09:01:11.044Z,20.80
2018-05-10T09:03:39.296Z,20.90
2018-05-10T09:06:07.616Z,21.00
2018-05-10T09:08:35.876Z,21.20
2018-05-10T09:11:04.123Z,21.40
2018-05-10T09:13:32.407Z,21.60
2018-05-10T09:16:00.687Z,21.40
2018-05-10T09:18:28.967Z,21.30
2018-05-10T09:20:57.255Z,21.50
2018-05-10T09:23:26.235Z,21.60
2018-05-10T09:25:54.566Z,21.60
2018-05-10T09:28:23.575Z,21.80
2018-05-10T09:30:51.851Z,21.80
2018-05-10T09:33:20.189Z,21.80
2018-05-10T09:35:48.560Z,21.70
2018-05-10T09:38:16.846Z,21.80
2018-05-10T09:40:45.158Z,21.90
2018-05-10T09:43:13.416Z,22.00
2018-05-10T09:45:42.480Z,22.30
2018-05-10T09:48:10.773Z,22.20
2018-05-10T09:50:39.056Z,22.50
2018-05-10T09:53:07.314Z,22.60
2018-05-10T09:55:35.561Z,22.70
2018-05-10T09:58:03.852Z,22.70
2018-05-10T10:00:32.108Z,22.90
2018-05-10T10:03:00.424Z,23.00
2018-05-10T10:05:28.746Z,22.90
2018-05-10T10:07:57.824Z,23.00
2018-05-10T10:10:26.068Z,22.80
2018-05-10T10:12:54.377Z,22.70
2018-05-10T10:15:22.615Z,22.80
2018-05-10T10:17:50.912Z,22.90
2018-05-10T10:20:19.194Z,23.00
2018-05-10T10:22:47.507Z,23.00
2018-05-10T10:25:16.625Z,23.40
2018-05-10T10:27:45.604Z,23.60
2018-05-10T10:30:13.870Z,23.60
2018-05-10T10:32:42.923Z,23.90
2018-05-10T10:35:11.168Z,23.90
2018-05-10T10:37:39.462Z,24.10
2018-05-10T10:40:07.725Z,24.20
2018-05-10T10:42:36.018Z,24.30
2018-05-10T10:45:04.280Z,24.50
2018-05-10T10:47:32.521Z,24.80
2018-05-10T10:50:01.548Z,25.10
2018-05-10T10:52:29.835Z,25.10
2018-05-10T10:54:58.100Z,25.40
2018-05-10T10:57:26.340Z,25.40
2018-05-10T10:59:55.463Z,25.70
2018-05-10T11:02:23.672Z,25.70
2018-05-10T11:04:51.922Z,25.80
2018-05-10T11:07:20.231Z,26.30
2018-05-10T11:09:48.507Z,26.50
2018-05-10T11:12:16.807Z,26.40
2018-05-10T11:14:45.087Z,26.30
2018-05-10T11:17:13.809Z,26.80
2018-05-10T11:19:42.108Z,26.70
2018-05-10T11:22:10.387Z,26.30
2018-05-10T11:24:38.636Z,26.20
2018-05-10T11:27:06.876Z,25.60
2018-05-10T11:29:35.129Z,25.50
2018-05-10T11:32:03.378Z,26.00
2018-05-10T11:34:31.636Z,26.10
2018-05-10T11:37:00.690Z,26.00
2018-05-10T11:39:29.738Z,26.00
2018-05-10T11:41:57.996Z,26.00
2018-05-10T11:44:27.031Z,25.90
2018-05-10T11:46:55.276Z,25.80
2018-05-10T11:49:24.296Z,25.50
2018-05-10T11:51:52.577Z,25.50
2018-05-10T11:54:20.823Z,25.40
2018-05-10T11:56:49.837Z,25.20
2018-05-10T11:59:18.152Z,25.20
2018-05-10T12:01:46.458Z,25.10
2018-05-10T12:04:14.724Z,24.90
2018-05-10T12:06:42.996Z,24.90
2018-05-10T12:09:11.227Z,24.90
2018-05-10T12:11:39.500Z,24.70
2018-05-10T12:14:08.617Z,24.70
2018-05-10T12:16:36.870Z,24.60
2018-05-10T12:19:05.187Z,24.50
2018-05-10T12:21:33.395Z,24.40
2018-05-10T12:24:02.420Z,24.20
2018-05-10T12:26:30.716Z,24.20
2018-05-10T12:28:58.976Z,24.00
2018-05-10T12:31:27.311Z,23.20
2018-05-10T12:33:55.619Z,22.40
2018-05-10T12:36:24.662Z,21.30
2018-05-10T12:38:52.916Z,21.30
2018-05-10T12:41:21.199Z,21.20
2018-05-10T12:43:49.435Z,20.90
2018-05-10T12:46:18.458Z,19.90
2018-05-10T12:48:46.837Z,19.80
2018-05-10T12:51:15.065Z,19.40
2018-05-10T12:53:43.365Z,19.00
2018-05-10T12:56:12.504Z,17.70
2018-05-10T12:58:41.471Z,17.70
2018-05-10T13:01:09.747Z,17.70
2018-05-10T13:03:38.000Z,17.10
2018-05-10T13:06:07.071Z,16.30
2018-05-10T13:08:35.309Z,16.30
2018-05-10T13:11:03.580Z,15.90
2018-05-10T13:13:31.830Z,15.70
2018-05-10T13:16:00.946Z,15.60
2018-05-10T13:18:29.942Z,15.60
2018-05-10T13:20:58.505Z,15.50
2018-05-10T13:23:27.548Z,15.60
2018-05-10T13:25:55.767Z,15.60
2018-05-10T13:28:24.800Z,15.60
2018-05-10T13:30:53.104Z,15.60
2018-05-10T13:33:21.567Z,15.50
2018-05-10T13:35:49.855Z,15.50
2018-05-10T13:38:18.161Z,15.10
2018-05-10T13:40:46.419Z,15.00
2018-05-10T13:43:14.696Z,15.10
2018-05-10T13:45:42.993Z,15.00
2018-05-10T13:48:11.283Z,14.80
2018-05-10T13:50:39.562Z,14.80
2018-05-10T13:53:07.795Z,14.80
2018-05-10T13:55:36.154Z,15.00
2018-05-10T13:58:04.402Z,15.00
2018-05-10T14:00:33.435Z,15.10
2018-05-10T14:03:01.732Z,15.10
2018-05-10T14:05:30.083Z,15.00
2018-05-10T14:07:58.322Z,15.10
2018-05-10T14:10:26.567Z,15.20
2018-05-10T14:12:54.834Z,15.20
2018-05-10T14:15:23.089Z,15.10
2018-05-10T14:17:51.373Z,15.20
2018-05-10T14:20:19.677Z,15.10
2018-05-10T14:22:47.935Z,15.20
2018-05-10T14:25:16.206Z,15.20
2018-05-10T14:27:44.495Z,15.30
2018-05-10T14:30:12.823Z,15.30
2018-05-10T14:32:41.042Z,15.30
2018-05-10T14:35:09.288Z,15.30
2018-05-10T14:37:38.356Z,15.10
2018-05-10T14:40:06.642Z,15.10
2018-05-10T14:42:35.783Z,15.00
2018-05-10T14:45:04.067Z,15.10
2018-05-10T14:47:32.366Z,14.90
2018-05-10T14:50:00.612Z,14.90
2018-05-10T14:52:28.868Z,14.80
2018-05-10T14:54:57.171Z,14.90
2018-05-10T14:57:25.483Z,15.00
2018-05-10T14:59:53.787Z,15.10
2018-05-10T15:02:22.090Z,15.30
2018-05-10T15:04:50.353Z,15.40
2018-05-10T15:07:19.363Z,15.50
2018-05-10T15:09:47.725Z,15.50
2018-05-10T15:12:15.933Z,15.60
2018-05-10T15:14:44.275Z,15.60
2018-05-10T15:17:13.322Z,15.80
2018-05-10T15:19:41.610Z,15.80
2018-05-10T15:22:09.908Z,15.80
2018-05-10T15:24:38.183Z,15.80
2018-05-10T15:27:06.459Z,15.80
2018-05-10T15:29:34.684Z,15.90
2018-05-10T15:32:02.961Z,15.90
2018-05-10T15:34:31.194Z,15.90
2018-05-10T15:36:59.535Z,16.00
2018-05-10T15:39:27.781Z,16.00
2018-05-10T15:41:56.081Z,15.90
2018-05-10T15:44:24.366Z,15.80
2018-05-10T15:46:52.658Z,15.80
2018-05-10T15:49:20.892Z,15.80
2018-05-10T15:51:49.209Z,15.90
2018-05-10T15:54:17.460Z,15.90
2018-05-10T15:56:45.748Z,15.90
2018-05-10T15:59:14.067Z,15.90
2018-05-10T16:01:42.363Z,15.90
2018-05-10T16:04:11.422Z,16.00
2018-05-10T16:06:39.711Z,16.00
2018-05-10T16:09:07.957Z,16.00
2018-05-10T16:11:36.220Z,16.10
2018-05-10T16:14:04.509Z,16.00
2018-05-10T16:16:32.799Z,16.10
2018-05-10T16:19:01.099Z,15.90
2018-05-10T16:21:29.336Z,15.90
2018-05-10T16:23:57.664Z,15.90
2018-05-10T16:26:25.979Z,15.90
2018-05-10T16:28:54.236Z,16.00
2018-05-10T16:31:23.298Z,16.10
2018-05-10T16:33:51.579Z,16.10
2018-05-10T16:36:20.701Z,16.10
2018-05-10T16:38:49.763Z,16.30
2018-05-10T16:41:18.067Z,16.20
2018-05-10T16:43:46.358Z,16.20
2018-05-10T16:46:15.476Z,16.20
2018-05-10T16:48:43.762Z,16.20
2018-05-10T16:51:12.004Z,16.30
2018-05-10T16:53:41.046Z,16.40
2018-05-10T16:56:09.342Z,16.40
2018-05-10T16:58:37.639Z,16.40
2018-05-10T17:01:05.907Z,16.50
2018-05-10T17:03:34.173Z,16.40
2018-05-10T17:06:03.199Z,16.30
2018-05-10T17:08:32.242Z,16.20
2018-05-10T17:11:00.484Z,16.20
2018-05-10T17:13:28.744Z,16.20
2018-05-10T17:15:57.810Z,16.30
2018-05-10T17:18:26.104Z,16.30
2018-05-10T17:20:54.372Z,16.40
2018-05-10T17:23:22.648Z,16.40
2018-05-10T17:25:50.883Z,16.40
2018-05-10T17:28:19.147Z,16.40
2018-05-10T17:30:47.448Z,16.40
2018-05-10T17:33:15.699Z,16.40
2018-05-10T17:35:44.003Z,16.40
2018-05-10T17:38:12.267Z,16.40
2018-05-10T17:40:40.544Z,16.30
2018-05-10T17:43:08.822Z,16.40
2018-05-10T17:45:37.118Z,16.40
2018-05-10T17:48:05.368Z,16.40
2018-05-10T17:50:34.530Z,16.40
2018-05-10T17:53:02.779Z,16.40
2018-05-10T17:55:31.049Z,16.50
2018-05-10T17:57:59.368Z,16.50
2018-05-10T18:00:27.636Z,16.50
2018-05-10T18:02:55.880Z,16.60
2018-05-10T18:05:24.182Z,16.60
2018-05-10T18:07:53.544Z,16.60
2018-05-10T18:10:21.828Z,16.60
2018-05-10T18:12:50.093Z,16.60
2018-05-10T18:15:18.365Z,16.60
2018-05-10T18:17:46.670Z,16.50
2018-05-10T18:20:14.930Z,16.50
2018-05-10T18:22:43.211Z,16.60
2018-05-10T18:25:11.517Z,16.60
2018-05-10T18:27:39.789Z,16.60
2018-05-10T18:30:08.048Z,16.60
2018-05-10T18:32:36.555Z,16.60
2018-05-10T18:35:04.858Z,16.60
2018-05-10T18:37:33.114Z,16.50
2018-05-10T18:40:01.428Z,16.50
2018-05-10T18:42:30.441Z,16.50
2018-05-10T18:44:58.745Z,16.50
2018-05-10T18:47:26.987Z,16.50
2018-05-10T18:49:55.328Z,16.50
2018-05-10T18:52:24.384Z,16.50
2018-05-10T18:54:52.693Z,16.50
2018-05-10T18:57:21.183Z,16.50
2018-05-10T18:59:49.477Z,16.50
2018-05-10T19:02:18.710Z,16.50
2018-05-10T19:04:47.007Z,16.50
2018-05-10T19:07:15.352Z,16.50
2018-05-10T19:09:43.630Z,16.40
2018-05-10T19:12:12.651Z,16.40
2018-05-10T19:14:40.937Z,16.40
2018-05-10T19:17:09.192Z,16.40
2018-05-10T19:19:37.429Z,16.40
2018-05-10T19:22:06.516Z,16.40
2018-05-10T19:24:34.801Z,16.40
2018-05-10T19:27:03.140Z,16.40
2018-05-10T19:29:31.428Z,16.40
2018-05-10T19:32:00.600Z,16.40
2018-05-10T19:34:28.903Z,16.40
2018-05-10T19:36:57.208Z,16.40
2018-05-10T19:39:25.469Z,16.40
2018-05-10T19:41:54.705Z,16.30
2018-05-10T19:44:23.746Z,16.30
2018-05-10T19:46:51.997Z,16.30
2018-05-10T19:49:20.326Z,16.30
2018-05-10T19:51:48.965Z,16.30
2018-05-10T19:54:17.259Z,16.20
2018-05-10T19:56:45.645Z,16.20
2018-05-10T19:59:14.461Z,16.20
2018-05-10T20:01:42.723Z,16.20
2018-05-10T20:04:11.719Z,16.20
2018-05-10T20:06:39.996Z,16.10
2018-05-10T20:09:08.261Z,16.00
2018-05-10T20:11:37.132Z,15.80
2018-05-10T20:14:05.428Z,15.90
2018-05-10T20:16:33.745Z,15.80
2018-05-10T20:19:02.023Z,15.80
2018-05-10T20:21:30.296Z,15.80
2018-05-10T20:23:58.602Z,15.60
2018-05-10T20:26:26.911Z,15.60
2018-05-10T20:28:55.172Z,15.40
2018-05-10T20:31:23.462Z,15.20
2018-05-10T20:33:51.776Z,15.20
2018-05-10T20:36:20.033Z,15.20
2018-05-10T20:38:49.052Z,15.10
2018-05-10T20:41:17.352Z,15.10
2018-05-10T20:43:46.484Z,15.00
2018-05-10T20:46:14.777Z,15.00
2018-05-10T20:48:43.104Z,15.00
2018-05-10T20:51:12.451Z,14.90
2018-05-10T20:53:40.689Z,14.90
2018-05-10T20:56:08.985Z,14.90
2018-05-10T20:58:37.286Z,14.80
2018-05-10T21:01:05.527Z,14.70
2018-05-10T21:03:33.912Z,14.60
2018-05-10T21:06:02.147Z,14.70
2018-05-10T21:08:30.398Z,14.60
2018-05-10T21:10:58.691Z,14.60
2018-05-10T21:13:26.932Z,14.50
2018-05-10T21:15:55.196Z,14.50
2018-05-10T21:18:23.452Z,14.50
2018-05-10T21:20:52.493Z,14.30
2018-05-10T21:23:21.491Z,14.30
2018-05-10T21:25:49.799Z,14.20
2018-05-10T21:28:18.087Z,14.20
2018-05-10T21:30:47.140Z,13.90
2018-05-10T21:33:15.397Z,13.90
2018-05-10T21:35:43.680Z,14.00
2018-05-10T21:38:11.953Z,13.80
2018-05-10T21:40:40.194Z,13.90
2018-05-10T21:43:09.265Z,13.80
2018-05-10T21:45:37.542Z,13.80
2018-05-10T21:48:05.852Z,13.90
2018-05-10T21:50:34.896Z,13.90
2018-05-10T21:53:03.191Z,13.90
2018-05-10T21:55:31.483Z,13.90
2018-05-10T21:57:59.770Z,14.00
2018-05-10T22:00:28.818Z,14.10
2018-05-10T22:02:57.065Z,14.00
2018-05-10T22:05:25.373Z,14.00
2018-05-10T22:07:53.637Z,14.10
2018-05-10T22:10:21.904Z,14.10
2018-05-10T22:12:50.179Z,14.10
2018-05-10T22:15:18.417Z,14.20
2018-05-10T22:17:46.684Z,14.20
2018-05-10T22:20:14.972Z,14.10
2018-05-10T22:22:43.263Z,14.10
2018-05-10T22:25:12.363Z,14.10
2018-05-10T22:27:41.408Z,14.10
2018-05-10T22:30:09.766Z,14.10
2018-05-10T22:32:38.769Z,14.20
2018-05-10T22:35:07.104Z,14.20
2018-05-10T22:37:36.112Z,14.10
2018-05-10T22:40:05.154Z,14.00
2018-05-10T22:42:33.436Z,14.00
2018-05-10T22:45:01.722Z,14.10
2018-05-10T22:47:30.002Z,14.10
2018-05-10T22:49:58.274Z,14.10
2018-05-10T22:52:26.549Z,14.10
2018-05-10T22:54:54.791Z,14.10
2018-05-10T22:57:23.067Z,14.10
2018-05-10T22:59:51.357Z,14.00
2018-05-10T23:02:20.327Z,14.00
2018-05-10T23:04:48.597Z,14.00
2018-05-10T23:07:17.636Z,13.80
2018-05-10T23:09:45.906Z,13.80
2018-05-10T23:12:14.197Z,13.80
2018-05-10T23:14:42.404Z,13.80
2018-05-10T23:17:11.464Z,13.70
2018-05-10T23:19:39.699Z,13.70
2018-05-10T23:22:07.958Z,13.70
2018-05-10T23:24:37.014Z,13.80
2018-05-10T23:27:05.307Z,13.70
2018-05-10T23:29:33.607Z,13.80
2018-05-10T23:32:02.661Z,13.90
2018-05-10T23:34:30.904Z,13.80
2018-05-10T23:36:59.151Z,13.90
2018-05-10T23:39:28.185Z,13.90
2018-05-10T23:41:56.490Z,14.00
2018-05-10T23:44:24.794Z,14.00
2018-05-10T23:46:53.096Z,14.00
2018-05-10T23:49:22.162Z,14.10
2018-05-10T23:51:50.411Z,14.00
2018-05-10T23:54:18.669Z,14.10
2018-05-10T23:56:46.916Z,14.00
2018-05-10T23:59:15.997Z,14.10
